ホニアラ国際空港の過去48時間の天気

ホニアラ国際空港 (Honiara / Henderson)

現在時刻: 5/26 12:58 +11 (5/26 01:58 UTC) 以下の時間は現地時間です。

過去48時間のMETAR気象情報
時間 風向 風速(m/s) 視程 気温(℃) 湿度(%) 気圧(hPa) 天気現象
26 12:00 北北東 4 10km以上 31 70 1007
26 11:30 北北東 2 10km以上 32 59 1007
26 11:00 北東 3 10km以上 32 59 1008
26 10:00 3 10km以上 30 75 1009
26 09:30 4 10km以上 29 79 1009
26 08:00 2 10km以上 26 94 1009
26 07:00 2 10km以上 24 94 1008
26 06:00 南南東 2 10km以上 24 94 1008
26 05:00 静穏 0 10km以上 24 100 1007
26 03:00 南東 2 10km以上 24 100 1008
26 02:00 南東 2 10km以上 24 100 1008
26 01:00 静穏 0 10km以上 24 100 1008
26 00:00 静穏 0 10km以上 24 100 1008
25 23:00 静穏 0 10km以上 24 100 1009
25 22:00 静穏 0 10km以上 25 100 1009
25 21:00 - - - - - -
25 20:00 - - - - - -
25 19:00 - - - - - -
25 18:00 静穏 0 10km以上 27 94 1008
25 17:00 南東 1 10km以上 27 89 1007
25 16:00 南南西 2 10km以上 26 94 1007
25 15:30 南西 3 10km以上 26 94 1007
25 15:00 5 10km以上 28 79 1007
25 14:30 南東 5 10km以上 30 70 1008
25 14:00 北東 7 10km以上 31 70 1007
25 13:00 東北東 5 10km以上 32 71 1008
25 12:00 北東 5 10km以上 32 67 1009
25 11:00 北東 3 10km以上 31 66 1010
25 10:00 東北東 3 10km以上 31 70 1010
25 09:00 東南東 1 10km以上 30 75 1011
25 08:00 静穏 0 10km以上 27 84 1011
25 07:00 南南西 2 10km以上 24 94 1010
25 06:00 静穏 0 10km以上 24 94 1010
25 05:00 静穏 0 10km以上 24 100 1009
25 04:00 静穏 0 10km以上 24 100 1009
25 03:00 静穏 0 10km以上 25 94 1009
25 02:00 2 10km以上 25 94 1010
25 01:00 東南東 2 10km以上 25 94 1010
25 00:00 南西 3 10km以上 26 89 1011
24 23:00 南東 2 10km以上 26 89 1011 弱い雷
24 22:00 西 1 10km以上 26 94 1011
24 21:00 静穏 0 10km以上 27 89 1011
24 20:00 1 10km以上 27 89 1011
24 19:00 静穏 0 10km以上 28 84 1010
24 18:00 北東 2 10km以上 29 74 1009
24 17:00 北東 3 10km以上 30 70 1008
24 16:00 北北東 3 10km以上 32 67 1008
24 15:00 北東 3 10km以上 31 75 1007
24 14:00 北東 4 10km以上 31 70 1008
24 13:00 東北東 5 10km以上 32 67 1009
AGGH 260100Z 02007KT CAVOK 31/25 Q1007
AGGH 260030Z 02004KT CAVOK 32/23 Q1007
AGGH 260000Z 05006KT CAVOK 32/23 Q1008
AGGH 252300Z 09005KT 9999 FEW021 30/25 Q1009
AGGH 252230Z 09007KT 9999 FEW020 29/25 Q1009
AGGH 252100Z 18004KT 9999 FEW016 FEW017CB SCT030 BKN100 26/25 Q1009
AGGH 252000Z 18004KT 9999 FEW015 FEW016CB BKN030 24/23 Q1008
AGGH 251900Z 16003KT 9999 FEW015 FEW016CB BKN028 24/23 Q1008
AGGH 251800Z 00000KT 9999 FEW015 FEW016CB SCT028 24/24 Q1007 RMK SH TO NW
AGGH 251600Z 14003KT 9999 FEW015 FEW016CB 24/24 Q1008
AGGH 251500Z 14003KT 9999 SCT015 FEW016 24/24 Q1008 RMK CB ASSW SH TO SW
AGGH 251400Z 00000KT 9999 FEW015 24/24 Q1008
AGGH 251300Z 00000KT 9999 FEW015 24/24 Q1008
AGGH 251200Z 00000KT 9999 FEW015 24/24 Q1009
AGGH 251100Z 00000KT 9999 FEW015 25/25 Q1009
AGGH 251000Z METAR
AGGH 250900Z METAR
AGGH 250800Z METAR
AGGH 250700Z 00000KT 9999 FEW016 BKN028 27/26 Q1008 RMK DIST SH TO SE
AGGH 250600Z 14002KT 9999 FEW017 FEW018CB BKN030 27/25 Q1007
AGGH 250500Z 20003KT 9999 SCT017 FEW018CB BKN030 26/25 Q1007 CB TO S N NE
AGGH 250430Z 23005KT 9999 SCT017 FEW018CB BKN030 26/25 Q1007 RMKS RETS CB TO S SE N.NE
AGGH 250400Z 18009KT 9999 TS SCT019 FEW020CB 28/24 Q1007 RMKS SH TO S SE SW LIGHTNING SEEN
AGGH 250330Z 14010KT 9999 TS FEW020 FEW21CB 30/24 Q1008
AGGH 250300Z 05014KT 9999 FEW020 FEW21CB SCT300 31/25 Q1007
AGGH 250200Z 07010KT 9999 FEW020 32/26 Q1008
AGGH 250100Z 05010KT 9999 FEW020 32/25 Q1009
AGGH 250000Z 05005KT 9999 FEW020 31/24 Q1010
AGGH 242300Z 07005KT 9999 FEW020 31/25 Q1010
AGGH 242200Z 11002KT 9999 FEW019 30/25 Q1011
AGGH 242100Z 00000KT 9999 FEW014 27/24 Q1011
AGGH 242000Z 20004KT 9999 FEW014 24/23 Q1010
AGGH 241900Z 00000KT 9999 FEW014 24/23 Q1010
AGGH 241800Z 00000KT 9999 FEW014 24/24 Q1009
AGGH 241700Z 00000KT 9999 FEW014 24/24 Q1009
AGGH 241600Z 00000KT 9999 FEW014 25/24 Q1009
AGGH 241500Z 18003KT 9999 FEW014 FEW015CB 25/24 Q1010 RMK LTNG TO NE
AGGH 241400Z 11003KT 9999 FEW014 FEW015CB 25/24 Q1010 NE
AGGH 241300Z 23005KT 9999 FEW014 FEW015CB 26/24 Q1011 RMK CEASED
AGGH 241200Z 14004KT 9999 -TS FEW015 FEW016CB SCT026 26/24 Q1011 RMKS: CB TO N
AGGH 241100Z 27002KT 9999 FEW015 FEW016CB SCT100 26/25 Q1011
AGGH 241000Z 00000KT 9999 FEW016 FEW017CB SCT100 27/25 Q1011
AGGH 240900Z 18002KT 9999 FEW016 FEW017CB SCT026 27/25 Q1011
AGGH 240800Z 00000KT 9999 FEW017 SCT028 28/25 Q1010
AGGH 240700Z 05003KT 9999 FEW017 BKN100 29/24 Q1009
AGGH 240600Z 05005KT 9999 FEW018 BKN100 30/24 Q1008
AGGH 240500Z 02005KT 9999 FEW020 SCT100 32/25 Q1008
AGGH 240400Z 05006KT 9999 FEW020 SCT100 31/26 Q1007
AGGH 240300Z 05007KT 9999 FEW020 SCT300 31/25 Q1008
AGGH 240200Z 07009KT 9999 FEW020 32/25 Q1009